createdAt,value
2023-01-21T00:09:25.672Z,0.00
2023-01-21T00:24:26.208Z,0.00
2023-01-21T00:39:26.811Z,0.00
2023-01-21T00:54:27.819Z,0.00
2023-01-21T01:09:30.337Z,0.00
2023-01-21T01:24:30.563Z,0.00
2023-01-21T01:39:31.525Z,0.00
2023-01-21T01:54:31.698Z,0.00
2023-01-21T02:09:32.305Z,0.00
2023-01-21T02:24:32.923Z,0.00
2023-01-21T02:39:33.533Z,0.00
2023-01-21T02:54:35.135Z,0.00
2023-01-21T03:09:36.732Z,0.00
2023-01-21T03:24:37.353Z,0.00
2023-01-21T03:39:37.921Z,0.00
2023-01-21T03:54:38.541Z,0.00
2023-01-21T04:09:39.146Z,0.00
2023-01-21T04:24:39.762Z,0.00
2023-01-21T04:39:40.778Z,0.00
2023-01-21T04:54:40.978Z,0.00
2023-01-21T05:09:41.538Z,0.00
2023-01-21T05:24:42.176Z,0.00
2023-01-21T05:39:43.199Z,0.00
2023-01-21T05:54:59.921Z,0.00
2023-01-21T06:09:49.389Z,0.00
2023-01-21T06:24:49.576Z,0.00
2023-01-21T06:39:50.183Z,0.00
2023-01-21T06:54:50.770Z,0.00
2023-01-21T07:09:51.811Z,0.00
2023-01-21T07:24:53.031Z,16.88
2023-01-21T07:39:54.673Z,28.12
2023-01-21T07:54:55.210Z,45.00
2023-01-21T08:09:55.853Z,50.62
2023-01-21T08:24:56.836Z,118.12
2023-01-21T08:39:57.621Z,135.00
2023-01-21T08:54:58.797Z,163.12
2023-01-21T09:09:59.431Z,185.62
2023-01-21T09:25:00.430Z,185.62
2023-01-21T09:40:00.651Z,196.88
2023-01-21T09:55:01.238Z,208.12
2023-01-21T10:10:01.831Z,180.00
2023-01-21T10:25:02.866Z,185.62
2023-01-21T10:40:03.217Z,168.75
2023-01-21T10:55:04.717Z,163.12
2023-01-21T11:10:05.940Z,213.75
2023-01-21T11:25:06.523Z,421.88
2023-01-21T11:40:07.135Z,388.12
2023-01-21T11:55:07.392Z,286.88
2023-01-21T12:10:07.900Z,225.00
2023-01-21T12:25:08.469Z,241.88
2023-01-21T12:40:09.083Z,230.62
2023-01-21T12:55:09.698Z,180.00
2023-01-21T13:10:11.344Z,90.00
2023-01-21T13:25:12.438Z,61.88
2023-01-21T13:40:13.575Z,112.50
2023-01-21T13:55:18.130Z,78.75
2023-01-21T14:10:19.213Z,67.50
2023-01-21T14:25:20.325Z,33.75
2023-01-21T14:40:20.908Z,28.12
2023-01-21T14:55:21.538Z,22.50
2023-01-21T15:10:22.148Z,5.62
2023-01-21T15:25:22.743Z,0.00
2023-01-21T15:40:23.322Z,0.00
2023-01-21T15:55:24.349Z,0.00
2023-01-21T16:10:24.567Z,0.00
2023-01-21T16:25:25.197Z,0.00
2023-01-21T16:40:26.208Z,0.00
2023-01-21T16:55:26.441Z,0.00
2023-01-21T17:10:26.989Z,0.00
2023-01-21T17:25:29.606Z,0.00
2023-01-21T17:40:30.233Z,0.00
2023-01-21T17:55:30.847Z,0.00
2023-01-21T18:10:32.432Z,0.00
2023-01-21T18:25:33.578Z,0.00
2023-01-21T18:40:34.196Z,0.00
2023-01-21T18:55:34.594Z,0.00
2023-01-21T19:10:35.012Z,0.00
2023-01-21T19:25:35.139Z,0.00
2023-01-21T19:40:35.712Z,0.00
2023-01-21T19:55:36.336Z,0.00
2023-01-21T20:10:36.914Z,0.00
2023-01-21T20:25:37.113Z,0.00
2023-01-21T20:40:37.610Z,0.00
2023-01-21T20:55:38.232Z,0.00
2023-01-21T21:10:39.255Z,0.00
2023-01-21T21:25:39.417Z,0.00
2023-01-21T21:40:40.003Z,0.00
2023-01-21T21:55:40.654Z,0.00
2023-01-21T22:10:41.630Z,0.00
2023-01-21T22:25:41.849Z,0.00
2023-01-21T22:40:42.453Z,0.00
2023-01-21T22:55:43.464Z,0.00
2023-01-21T23:10:44.033Z,0.00
2023-01-21T23:25:44.673Z,0.00
2023-01-21T23:40:44.959Z,0.00
2023-01-21T23:55:45.488Z,0.00
